Time,TemperatureF,DewpointF,PressureIn,WindDirection,WindDirectionDegrees,WindSpeedMPH,WindSpeedGustMPH,Humidity,HourlyPrecipIn,Conditions,Clouds,dailyrainin,SoftwareType,DateUTC
2013-07-08 00:03:00,78.3,72.0,29.85,NW,315,0.0,1.3,81,0.00,,,0.00,VWS V14.01,2013-07-08 05:03:00,
2013-07-08 00:08:00,78.1,72.1,29.88,WSW,248,0.0,1.3,82,0.00,,,0.00,VWS V14.01,2013-07-08 05:08:00,
2013-07-08 00:13:00,77.9,72.0,29.88,South,180,0.0,1.1,82,0.00,,,0.00,VWS V14.01,2013-07-08 05:13:00,
2013-07-08 00:18:00,77.7,71.8,29.88,SSE,158,0.0,0.9,82,0.00,,,0.00,VWS V14.01,2013-07-08 05:18:00,
2013-07-08 00:23:00,77.4,71.8,29.88,WNW,292,0.0,1.1,83,0.00,,,0.00,VWS V14.01,2013-07-08 05:23:00,
2013-07-08 00:28:00,77.2,71.6,29.88,WNW,292,0.0,0.0,83,0.00,,,0.00,VWS V14.01,2013-07-08 05:28:00,
2013-07-08 00:33:00,76.8,71.6,29.85,WNW,292,0.0,0.0,84,0.00,,,0.00,VWS V14.01,2013-07-08 05:33:00,
2013-07-08 00:38:00,76.3,71.4,29.85,WNW,292,0.0,0.0,85,0.00,,,0.00,VWS V14.01,2013-07-08 05:38:00,
2013-07-08 00:43:00,75.9,71.1,29.85,WNW,292,0.0,0.0,85,0.00,,,0.00,VWS V14.01,2013-07-08 05:43:00,
2013-07-08 00:48:00,75.4,71.2,29.88,WNW,292,0.0,0.0,87,0.00,,,0.00,VWS V14.01,2013-07-08 05:48:00,
2013-07-08 00:53:00,75.0,70.9,29.88,WNW,292,0.0,0.0,87,0.00,,,0.00,VWS V14.01,2013-07-08 05:53:00,
2013-07-08 00:58:00,74.7,70.5,29.88,WNW,292,0.0,0.0,87,0.00,,,0.00,VWS V14.01,2013-07-08 05:58:00,
2013-07-08 01:03:00,74.5,70.7,29.88,WNW,292,0.0,0.0,88,0.00,,,0.00,VWS V14.01,2013-07-08 06:03:00,
2013-07-08 01:08:00,74.1,70.7,29.88,WNW,292,0.0,0.0,89,0.00,,,0.00,VWS V14.01,2013-07-08 06:08:00,
2013-07-08 01:13:00,73.9,70.5,29.88,WNW,292,0.0,0.0,89,0.00,,,0.00,VWS V14.01,2013-07-08 06:13:00,
2013-07-08 01:19:00,73.9,70.5,29.88,WNW,292,0.0,0.0,89,0.00,,,0.00,VWS V14.01,2013-07-08 06:19:00,
2013-07-08 01:24:00,73.9,70.8,29.88,WNW,292,0.0,0.0,90,0.00,,,0.00,VWS V14.01,2013-07-08 06:24:00,
2013-07-08 01:29:00,73.9,70.8,29.88,WNW,292,0.0,0.0,90,0.00,,,0.00,VWS V14.01,2013-07-08 06:29:00,
2013-07-08 01:34:00,73.8,70.7,29.88,WNW,292,0.0,0.0,90,0.00,,,0.00,VWS V14.01,2013-07-08 06:34:00,
2013-07-08 01:39:00,73.8,71.0,29.88,WNW,292,0.0,0.0,91,0.00,,,0.00,VWS V14.01,2013-07-08 06:39:00,
2013-07-08 01:44:00,73.6,70.8,29.88,WNW,292,0.0,0.0,91,0.00,,,0.00,VWS V14.01,2013-07-08 06:44:00,
2013-07-08 01:49:00,73.6,70.8,29.88,WNW,292,0.0,0.0,91,0.00,,,0.00,VWS V14.01,2013-07-08 06:49:00,
2013-07-08 01:54:00,73.4,70.6,29.88,WNW,292,0.0,0.0,91,0.00,,,0.00,VWS V14.01,2013-07-08 06:54:00,
2013-07-08 01:59:00,73.2,70.4,29.88,WNW,292,0.0,0.0,91,0.00,,,0.00,VWS V14.01,2013-07-08 06:59:00,
2013-07-08 02:04:00,73.2,70.8,29.88,WNW,292,0.0,0.0,92,0.00,,,0.00,VWS V14.01,2013-07-08 07:04:00,
2013-07-08 02:09:00,73.2,71.1,29.88,East,90,1.1,2.0,93,0.00,,,0.00,VWS V14.01,2013-07-08 07:09:00,
2013-07-08 02:14:00,73.4,71.3,29.88,East,90,0.0,0.9,93,0.00,,,0.00,VWS V14.01,2013-07-08 07:14:00,
2013-07-08 02:19:00,73.4,71.3,29.88,East,90,0.0,0.0,93,0.00,,,0.00,VWS V14.01,2013-07-08 07:19:00,
2013-07-08 02:24:00,73.4,70.9,29.88,East,90,0.0,0.0,92,0.00,,,0.00,VWS V14.01,2013-07-08 07:24:00,
2013-07-08 02:30:00,73.4,71.3,29.88,East,90,0.0,0.0,93,0.00,,,0.00,VWS V14.01,2013-07-08 07:30:00,
2013-07-08 02:35:00,73.4,70.9,29.88,East,90,0.0,0.0,92,0.00,,,0.00,VWS V14.01,2013-07-08 07:35:00,
2013-07-08 02:40:00,73.4,71.3,29.88,East,90,0.0,0.0,93,0.00,,,0.00,VWS V14.01,2013-07-08 07:40:00,
2013-07-08 02:45:00,73.2,71.1,29.88,East,90,0.0,0.0,93,0.00,,,0.00,VWS V14.01,2013-07-08 07:45:00,
2013-07-08 02:50:00,73.2,71.1,29.88,East,90,0.0,0.0,93,0.00,,,0.00,VWS V14.01,2013-07-08 07:50:00,
2013-07-08 02:55:00,73.0,70.9,29.88,East,90,0.0,0.0,93,0.00,,,0.00,VWS V14.01,2013-07-08 07:55:00,
2013-07-08 03:00:00,72.9,70.7,29.88,East,90,0.0,0.0,93,0.00,,,0.00,VWS V14.01,2013-07-08 08:00:00,
2013-07-08 03:05:00,72.9,71.0,29.88,East,90,0.0,0.0,94,0.00,,,0.00,VWS V14.01,2013-07-08 08:05:00,
2013-07-08 03:10:00,72.7,70.9,29.88,East,90,0.0,1.3,94,0.00,,,0.00,VWS V14.01,2013-07-08 08:10:00,
2013-07-08 03:15:00,72.7,71.2,29.88,East,90,0.0,0.0,95,0.00,,,0.00,VWS V14.01,2013-07-08 08:15:00,
2013-07-08 03:20:00,72.5,71.0,29.88,East,90,0.0,0.0,95,0.00,,,0.00,VWS V14.01,2013-07-08 08:20:00,
2013-07-08 03:25:00,72.5,71.0,29.88,East,90,0.0,0.0,95,0.00,,,0.00,VWS V14.01,2013-07-08 08:25:00,
2013-07-08 03:30:00,72.3,70.5,29.88,East,90,0.0,0.0,94,0.00,,,0.00,VWS V14.01,2013-07-08 08:30:00,
2013-07-08 03:36:00,72.1,70.6,29.88,East,90,0.0,0.0,95,0.00,,,0.00,VWS V14.01,2013-07-08 08:36:00,
2013-07-08 03:41:00,72.0,70.4,29.88,East,90,0.0,0.0,95,0.00,,,0.00,VWS V14.01,2013-07-08 08:41:00,
2013-07-08 03:46:00,71.8,70.3,29.88,East,90,0.0,0.0,95,0.00,,,0.00,VWS V14.01,2013-07-08 08:46:00,
2013-07-08 03:51:00,71.6,70.1,29.88,East,90,0.0,0.0,95,0.00,,,0.00,VWS V14.01,2013-07-08 08:51:00,
2013-07-08 03:56:00,71.4,69.9,29.88,East,90,0.0,0.0,95,0.00,,,0.00,VWS V14.01,2013-07-08 08:56:00,
2013-07-08 04:01:00,71.2,69.7,29.88,East,90,0.0,0.0,95,0.00,,,0.00,VWS V14.01,2013-07-08 09:01:00,
2013-07-08 04:06:00,71.1,69.9,29.88,East,90,0.0,0.0,96,0.00,,,0.00,VWS V14.01,2013-07-08 09:06:00,
2013-07-08 04:11:00,70.9,69.7,29.88,East,90,0.0,0.0,96,0.00,,,0.00,VWS V14.01,2013-07-08 09:11:00,
2013-07-08 04:16:00,70.7,69.5,29.88,East,90,0.0,0.0,96,0.00,,,0.00,VWS V14.01,2013-07-08 09:16:00,
2013-07-08 04:21:00,70.5,69.3,29.88,East,90,0.0,0.0,96,0.00,,,0.00,VWS V14.01,2013-07-08 09:21:00,
2013-07-08 04:26:00,70.5,69.3,29.88,East,90,0.0,0.0,96,0.00,,,0.00,VWS V14.01,2013-07-08 09:26:00,
2013-07-08 04:31:00,70.5,69.3,29.88,East,90,0.0,0.0,96,0.00,,,0.00,VWS V14.01,2013-07-08 09:31:00,
2013-07-08 04:36:00,70.5,69.6,29.91,East,90,0.0,0.0,97,0.00,,,0.00,VWS V14.01,2013-07-08 09:36:00,
2013-07-08 04:41:00,70.5,69.6,29.91,East,90,0.0,0.0,97,0.00,,,0.00,VWS V14.01,2013-07-08 09:41:00,
2013-07-08 04:47:00,70.7,69.8,29.91,East,90,0.0,0.0,97,0.00,,,0.00,VWS V14.01,2013-07-08 09:47:00,
2013-07-08 04:52:00,70.7,69.8,29.91,East,90,0.0,0.0,97,0.00,,,0.00,VWS V14.01,2013-07-08 09:52:00,
2013-07-08 04:57:00,70.7,69.8,29.91,East,90,0.0,0.0,97,0.00,,,0.00,VWS V14.01,2013-07-08 09:57:00,
2013-07-08 05:02:00,70.9,70.3,29.91,East,90,0.0,0.0,98,0.00,,,0.00,VWS V14.01,2013-07-08 10:02:00,
2013-07-08 05:07:00,70.9,70.3,29.91,East,90,0.0,1.3,98,0.00,,,0.00,VWS V14.01,2013-07-08 10:07:00,
2013-07-08 05:12:00,70.9,70.3,29.91,ENE,68,0.0,0.0,98,0.00,,,0.00,VWS V14.01,2013-07-08 10:12:00,
2013-07-08 05:17:00,70.9,70.3,29.91,SE,135,0.0,0.9,98,0.00,,,0.00,VWS V14.01,2013-07-08 10:17:00,
2013-07-08 05:22:00,70.9,70.3,29.91,SE,135,0.0,0.0,98,0.00,,,0.00,VWS V14.01,2013-07-08 10:22:00,
2013-07-08 05:27:00,70.9,70.3,29.91,SE,135,0.0,0.0,98,0.00,,,0.00,VWS V14.01,2013-07-08 10:27:00,
2013-07-08 05:32:00,71.2,70.7,29.91,NW,315,0.0,1.1,98,0.00,,,0.00,VWS V14.01,2013-07-08 10:32:00,
2013-07-08 05:37:00,71.4,70.8,29.94,NW,315,0.9,1.3,98,0.00,,,0.00,VWS V14.01,2013-07-08 10:37:00,
2013-07-08 05:42:00,71.4,70.8,29.94,NNW,338,0.0,2.9,98,0.00,,,0.00,VWS V14.01,2013-07-08 10:42:00,
2013-07-08 05:47:00,72.1,71.6,29.94,ENE,68,2.5,3.6,98,0.00,,,0.00,VWS V14.01,2013-07-08 10:47:00,
2013-07-08 05:53:00,72.3,71.7,29.94,NE,45,1.1,3.4,98,0.00,,,0.00,VWS V14.01,2013-07-08 10:53:00,
2013-07-08 05:58:00,72.5,71.9,29.94,NE,45,0.9,2.0,98,0.00,,,0.00,VWS V14.01,2013-07-08 10:58:00,
2013-07-08 06:03:00,72.5,71.9,29.94,East,90,0.0,2.5,98,0.00,,,0.00,VWS V14.01,2013-07-08 11:03:00,
2013-07-08 06:08:00,72.7,72.1,29.94,NNE,22,2.0,2.0,98,0.00,,,0.00,VWS V14.01,2013-07-08 11:08:00,
2013-07-08 06:13:00,72.7,72.1,29.94,NW,315,0.0,2.9,98,0.00,,,0.00,VWS V14.01,2013-07-08 11:13:00,
2013-07-08 06:18:00,72.9,72.0,29.94,NW,315,2.0,2.7,97,0.00,,,0.00,VWS V14.01,2013-07-08 11:18:00,
2013-07-08 06:23:00,72.9,72.0,29.94,NW,315,0.0,2.2,97,0.00,,,0.00,VWS V14.01,2013-07-08 11:23:00,
2013-07-08 06:28:00,73.0,72.1,29.94,NW,315,0.0,2.2,97,0.00,,,0.00,VWS V14.01,2013-07-08 11:28:00,
2013-07-08 06:33:00,73.0,72.1,29.94,NE,45,1.6,2.7,97,0.00,,,0.00,VWS V14.01,2013-07-08 11:33:00,
2013-07-08 06:38:00,73.0,72.1,29.94,WNW,292,0.9,4.3,97,0.00,,,0.00,VWS V14.01,2013-07-08 11:38:00,
2013-07-08 06:43:00,73.0,72.1,29.94,NW,315,0.9,1.6,97,0.00,,,0.00,VWS V14.01,2013-07-08 11:43:00,
2013-07-08 06:48:00,73.0,71.8,29.94,NW,315,1.3,1.3,96,0.00,,,0.00,VWS V14.01,2013-07-08 11:48:00,
2013-07-08 06:53:00,73.0,71.8,29.94,NW,315,2.5,3.6,96,0.00,,,0.00,VWS V14.01,2013-07-08 11:53:00,
2013-07-08 06:58:00,73.0,71.8,29.94,NW,315,0.0,0.0,96,0.00,,,0.00,VWS V14.01,2013-07-08 11:58:00,
2013-07-08 07:03:00,73.0,71.8,29.94,NW,315,0.0,1.6,96,0.00,,,0.00,VWS V14.01,2013-07-08 12:03:00,
2013-07-08 07:08:00,73.0,71.8,29.94,NW,315,1.1,1.3,96,0.00,,,0.00,VWS V14.01,2013-07-08 12:08:00,
2013-07-08 07:14:00,73.0,71.8,29.94,NW,315,2.0,2.5,96,0.00,,,0.00,VWS V14.01,2013-07-08 12:14:00,
2013-07-08 07:19:00,73.0,71.8,29.91,NW,315,0.9,0.9,96,0.00,,,0.00,VWS V14.01,2013-07-08 12:19:00,
2013-07-08 07:24:00,73.0,71.8,29.91,NW,315,0.0,0.9,96,0.00,,,0.00,VWS V14.01,2013-07-08 12:24:00,
2013-07-08 07:29:00,73.2,71.7,29.91,NW,315,1.1,2.7,95,0.00,,,0.00,VWS V14.01,2013-07-08 12:29:00,
2013-07-08 07:34:00,73.2,71.7,29.94,NW,315,1.6,1.6,95,0.00,,,0.00,VWS V14.01,2013-07-08 12:34:00,
2013-07-08 07:39:00,73.4,71.9,29.94,NW,315,0.0,0.0,95,0.00,,,0.00,VWS V14.01,2013-07-08 12:39:00,
2013-07-08 07:44:00,73.6,72.1,29.94,NW,315,0.0,0.9,95,0.00,,,0.00,VWS V14.01,2013-07-08 12:44:00,
2013-07-08 07:49:00,73.9,72.1,29.94,WNW,292,2.5,4.9,94,0.00,,,0.00,VWS V14.01,2013-07-08 12:49:00,
2013-07-08 07:54:00,74.1,72.3,29.94,East,90,2.7,2.7,94,0.00,,,0.00,VWS V14.01,2013-07-08 12:54:00,
2013-07-08 07:59:00,74.5,72.3,29.94,WNW,292,1.1,2.7,93,0.00,,,0.00,VWS V14.01,2013-07-08 12:59:00,
2013-07-08 08:04:00,74.7,72.5,29.94,NW,315,2.5,2.9,93,0.00,,,0.00,VWS V14.01,2013-07-08 13:04:00,
2013-07-08 08:09:00,75.0,72.5,29.94,WNW,292,2.7,2.7,92,0.00,,,0.00,VWS V14.01,2013-07-08 13:09:00,
2013-07-08 08:14:00,75.6,72.8,29.94,West,270,0.0,2.0,91,0.00,,,0.00,VWS V14.01,2013-07-08 13:14:00,
2013-07-08 08:19:00,75.7,72.6,29.94,WNW,292,2.7,3.4,90,0.00,,,0.00,VWS V14.01,2013-07-08 13:19:00,
2013-07-08 08:25:00,75.7,72.6,29.94,WNW,292,2.0,2.2,90,0.00,,,0.00,VWS V14.01,2013-07-08 13:25:00,
2013-07-08 08:30:00,75.4,72.2,29.94,NW,315,1.1,1.6,90,0.00,,,0.00,VWS V14.01,2013-07-08 13:30:00,
2013-07-08 08:35:00,75.4,72.2,29.94,NW,315,1.3,3.6,90,0.00,,,0.00,VWS V14.01,2013-07-08 13:35:00,
2013-07-08 08:40:00,75.2,72.1,29.94,NW,315,1.3,4.3,90,0.00,,,0.00,VWS V14.01,2013-07-08 13:40:00,
2013-07-08 08:45:00,75.0,71.9,29.94,NW,315,2.7,2.9,90,0.00,,,0.00,VWS V14.01,2013-07-08 13:45:00,
2013-07-08 08:50:00,74.7,71.5,29.94,WNW,292,1.6,4.0,90,0.00,,,0.00,VWS V14.01,2013-07-08 13:50:00,
2013-07-08 08:55:00,74.7,71.9,29.94,NW,315,2.5,4.0,91,0.00,,,0.00,VWS V14.01,2013-07-08 13:55:00,
2013-07-08 09:00:00,74.7,71.9,29.94,NNE,22,0.0,3.1,91,0.00,,,0.00,VWS V14.01,2013-07-08 14:00:00,
2013-07-08 09:05:00,74.5,71.7,29.97,SW,225,2.9,3.6,91,0.00,,,0.00,VWS V14.01,2013-07-08 14:05:00,
2013-07-08 09:10:00,74.3,71.5,29.97,NE,45,0.0,2.0,91,0.00,,,0.00,VWS V14.01,2013-07-08 14:10:00,
2013-07-08 09:15:00,73.9,71.2,29.97,WNW,292,4.0,4.0,91,0.00,,,0.00,VWS V14.01,2013-07-08 14:15:00,
2013-07-08 09:20:00,73.9,71.2,29.97,NE,45,1.3,3.1,91,0.00,,,0.00,VWS V14.01,2013-07-08 14:20:00,
2013-07-08 09:25:00,73.9,71.2,29.97,South,180,0.9,3.1,91,0.00,,,0.00,VWS V14.01,2013-07-08 14:25:00,
2013-07-08 09:30:00,73.9,71.5,29.97,SW,225,3.8,3.8,92,0.00,,,0.00,VWS V14.01,2013-07-08 14:30:00,
2013-07-08 09:36:00,73.9,71.5,30.00,NW,315,1.6,3.1,92,0.00,,,0.00,VWS V14.01,2013-07-08 14:36:00,
2013-07-08 09:41:00,73.9,71.5,30.00,NNW,338,2.9,4.0,92,0.00,,,0.00,VWS V14.01,2013-07-08 14:41:00,
2013-07-08 09:46:00,74.3,71.8,30.00,North,0,0.9,2.9,92,0.00,,,0.00,VWS V14.01,2013-07-08 14:46:00,
2013-07-08 09:51:00,74.3,71.8,30.00,NW,315,2.2,5.6,92,0.00,,,0.00,VWS V14.01,2013-07-08 14:51:00,
2013-07-08 09:56:00,74.5,72.0,30.00,WNW,292,1.1,2.5,92,0.00,,,0.00,VWS V14.01,2013-07-08 14:56:00,
2013-07-08 10:01:00,74.5,71.7,30.00,WSW,248,2.2,3.6,91,0.00,,,0.00,VWS V14.01,2013-07-08 15:01:00,
2013-07-08 10:06:00,74.7,71.9,30.00,ENE,68,2.2,3.4,91,0.00,,,0.00,VWS V14.01,2013-07-08 15:06:00,
2013-07-08 10:11:00,74.8,71.7,30.00,NW,315,2.5,3.6,90,0.00,,,0.00,VWS V14.01,2013-07-08 15:11:00,
2013-07-08 10:16:00,74.8,71.7,30.00,WNW,292,0.9,3.1,90,0.00,,,0.00,VWS V14.01,2013-07-08 15:16:00,
2013-07-08 10:21:00,75.0,71.9,30.03,ENE,68,2.5,2.9,90,0.00,,,0.00,VWS V14.01,2013-07-08 15:21:00,
2013-07-08 10:26:00,75.2,71.7,30.03,WNW,292,2.7,2.9,89,0.00,,,0.00,VWS V14.01,2013-07-08 15:26:00,
2013-07-08 10:31:00,75.2,71.7,30.03,WNW,292,0.0,2.0,89,0.00,,,0.00,VWS V14.01,2013-07-08 15:31:00,
2013-07-08 10:37:00,75.4,71.9,29.97,NE,45,1.1,2.5,89,0.00,,,0.00,VWS V14.01,2013-07-08 15:37:00,
2013-07-08 10:42:00,75.4,71.6,29.97,NNW,338,1.3,3.1,88,0.00,,,0.00,VWS V14.01,2013-07-08 15:42:00,
2013-07-08 10:47:00,75.6,72.1,29.97,NNW,338,1.1,1.6,89,0.00,,,0.00,VWS V14.01,2013-07-08 15:47:00,
2013-07-08 10:52:00,75.9,72.4,30.00,NNW,338,0.9,2.2,89,0.00,,,0.00,VWS V14.01,2013-07-08 15:52:00,
2013-07-08 10:57:00,76.1,72.3,30.00,NE,45,0.0,2.7,88,0.00,,,0.00,VWS V14.01,2013-07-08 15:57:00,
2013-07-08 11:02:00,76.1,72.3,30.00,East,90,2.5,3.8,88,0.00,,,0.00,VWS V14.01,2013-07-08 16:02:00,
2013-07-08 11:07:00,76.3,72.5,30.00,NE,45,2.0,3.8,88,0.00,,,0.00,VWS V14.01,2013-07-08 16:07:00,
2013-07-08 11:12:00,76.6,72.5,30.00,WNW,292,0.9,3.6,87,0.00,,,0.00,VWS V14.01,2013-07-08 16:12:00,
2013-07-08 11:17:00,76.6,72.1,30.00,NE,45,3.1,4.0,86,0.00,,,0.00,VWS V14.01,2013-07-08 16:17:00,
2013-07-08 11:22:00,76.8,72.3,29.97,ENE,68,2.2,3.1,86,0.00,,,0.00,VWS V14.01,2013-07-08 16:22:00,
2013-07-08 11:27:00,76.8,72.3,29.97,NE,45,2.5,5.4,86,0.00,,,0.00,VWS V14.01,2013-07-08 16:27:00,
2013-07-08 11:33:00,77.0,72.2,29.97,West,270,2.7,3.4,85,0.00,,,0.00,VWS V14.01,2013-07-08 16:33:00,
2013-07-08 11:38:00,77.0,72.2,30.00,NNW,338,2.9,3.4,85,0.00,,,0.00,VWS V14.01,2013-07-08 16:38:00,
2013-07-08 11:43:00,76.6,71.8,30.00,NNW,338,2.9,5.4,85,0.00,,,0.00,VWS V14.01,2013-07-08 16:43:00,
2013-07-08 11:48:00,76.8,72.0,29.97,NW,315,1.3,2.5,85,0.00,,,0.00,VWS V14.01,2013-07-08 16:48:00,
2013-07-08 11:54:00,76.8,72.0,29.97,East,90,2.7,3.8,85,0.00,,,0.00,VWS V14.01,2013-07-08 16:54:00,
2013-07-08 11:59:00,76.6,71.8,29.97,NW,315,1.1,2.5,85,0.00,,,0.00,VWS V14.01,2013-07-08 16:59:00,
2013-07-08 12:04:00,77.0,72.2,30.00,SSE,158,2.5,3.4,85,0.00,,,0.00,VWS V14.01,2013-07-08 17:04:00,
2013-07-08 12:09:00,77.4,72.5,30.00,ENE,68,2.2,3.6,85,0.00,,,0.00,VWS V14.01,2013-07-08 17:09:00,
2013-07-08 12:14:00,77.2,72.3,30.00,NE,45,1.3,3.4,85,0.00,,,0.00,VWS V14.01,2013-07-08 17:14:00,
2013-07-08 12:20:00,77.2,72.3,30.00,NW,315,1.1,2.2,85,0.00,,,0.00,VWS V14.01,2013-07-08 17:20:00,
2013-07-08 12:25:00,77.4,72.5,30.00,NW,315,1.3,2.2,85,0.00,,,0.00,VWS V14.01,2013-07-08 17:25:00,
2013-07-08 12:30:00,77.4,72.5,30.00,ENE,68,0.9,1.3,85,0.00,,,0.00,VWS V14.01,2013-07-08 17:30:00,
2013-07-08 12:35:00,77.5,72.0,30.00,WNW,292,2.5,4.3,83,0.00,,,0.00,VWS V14.01,2013-07-08 17:35:00,
2013-07-08 12:41:00,77.4,71.8,30.00,WNW,292,3.1,3.1,83,0.00,,,0.00,VWS V14.01,2013-07-08 17:41:00,
2013-07-08 12:46:00,77.5,72.3,30.00,WNW,292,1.6,4.3,84,0.00,,,0.00,VWS V14.01,2013-07-08 17:46:00,
2013-07-08 12:51:00,77.5,72.0,29.97,ENE,68,0.0,5.4,83,0.00,,,0.00,VWS V14.01,2013-07-08 17:51:00,
2013-07-08 12:56:00,78.1,72.5,29.97,WNW,292,2.7,4.3,83,0.00,,,0.00,VWS V14.01,2013-07-08 17:56:00,
2013-07-08 13:01:00,78.3,72.3,29.97,NNE,22,2.0,4.5,82,0.00,,,0.00,VWS V14.01,2013-07-08 18:01:00,
2013-07-08 13:06:00,78.4,72.5,29.97,SE,135,2.0,5.8,82,0.00,,,0.00,VWS V14.01,2013-07-08 18:06:00,
2013-07-08 13:12:00,78.6,72.3,29.97,NW,315,2.7,4.5,81,0.00,,,0.00,VWS V14.01,2013-07-08 18:12:00,
2013-07-08 13:17:00,79.5,72.4,29.97,WNW,292,4.3,5.4,79,0.00,,,0.00,VWS V14.01,2013-07-08 18:17:00,
2013-07-08 13:23:00,79.5,72.4,30.00,East,90,2.7,4.3,79,0.00,,,0.00,VWS V14.01,2013-07-08 18:23:00,
2013-07-08 13:28:00,79.7,72.6,30.00,NNW,338,2.7,5.8,79,0.00,,,0.00,VWS V14.01,2013-07-08 18:28:00,
2013-07-08 13:33:00,79.7,72.2,30.00,ENE,68,2.9,5.8,78,0.00,,,0.00,VWS V14.01,2013-07-08 18:33:00,
2013-07-08 13:38:00,79.7,72.2,29.97,NNE,22,2.5,3.8,78,0.00,,,0.00,VWS V14.01,2013-07-08 18:38:00,
2013-07-08 13:44:00,81.1,72.9,29.97,SSE,158,2.7,3.1,76,0.00,,,0.00,VWS V14.01,2013-07-08 18:44:00,
2013-07-08 13:49:00,81.7,73.4,30.00,East,90,3.6,4.0,76,0.00,,,0.00,VWS V14.01,2013-07-08 18:49:00,
2013-07-08 13:54:00,82.0,73.3,30.00,ENE,68,3.6,3.8,75,0.00,,,0.00,VWS V14.01,2013-07-08 18:54:00,
2013-07-08 14:00:00,82.4,72.5,30.00,NE,45,3.8,4.7,72,0.00,,,0.00,VWS V14.01,2013-07-08 19:00:00,
2013-07-08 14:06:00,82.6,73.5,30.00,ENE,68,3.4,4.0,74,0.00,,,0.00,VWS V14.01,2013-07-08 19:06:00,
2013-07-08 14:11:00,82.6,73.5,30.00,NNW,338,2.0,5.6,74,0.00,,,0.00,VWS V14.01,2013-07-08 19:11:00,
2013-07-08 14:17:00,83.3,73.3,30.00,NNE,22,2.5,4.9,72,0.00,,,0.00,VWS V14.01,2013-07-08 19:17:00,
2013-07-08 14:22:00,83.3,73.3,30.00,WNW,292,1.6,2.5,72,0.00,,,0.00,VWS V14.01,2013-07-08 19:22:00,
2013-07-08 14:27:00,85.1,72.9,30.00,NW,315,5.4,5.4,67,0.00,,,0.00,VWS V14.01,2013-07-08 19:27:00,
2013-07-08 14:33:00,86.0,74.2,30.00,NE,45,3.8,3.8,68,0.00,,,0.00,VWS V14.01,2013-07-08 19:33:00,
2013-07-08 14:38:00,86.0,73.8,30.00,NE,45,4.9,6.3,67,0.00,,,0.00,VWS V14.01,2013-07-08 19:38:00,
2013-07-08 14:43:00,86.4,73.2,30.00,NNW,338,2.9,3.6,65,0.00,,,0.00,VWS V14.01,2013-07-08 19:43:00,
2013-07-08 14:48:00,86.2,73.0,30.00,West,270,2.7,3.8,65,0.00,,,0.00,VWS V14.01,2013-07-08 19:48:00,
2013-07-08 14:54:00,86.4,73.2,30.00,East,90,2.5,3.1,65,0.00,,,0.00,VWS V14.01,2013-07-08 19:54:00,
2013-07-08 14:59:00,85.8,73.2,30.00,NE,45,2.0,2.9,66,0.00,,,0.00,VWS V14.01,2013-07-08 19:59:00,
2013-07-08 15:04:00,86.4,73.7,30.00,NNE,22,2.5,2.7,66,0.00,,,0.00,VWS V14.01,2013-07-08 20:04:00,
2013-07-08 15:10:00,85.6,71.1,30.00,WSW,248,3.8,4.3,62,0.00,,,0.00,VWS V14.01,2013-07-08 20:10:00,
2013-07-08 15:15:00,85.5,71.4,30.00,East,90,3.1,3.6,63,0.00,,,0.00,VWS V14.01,2013-07-08 20:15:00,
2013-07-08 15:22:00,85.5,71.9,30.00,ENE,68,2.9,2.9,64,0.00,,,0.00,VWS V14.01,2013-07-08 20:22:00,
2013-07-08 15:27:00,86.2,71.2,30.00,SW,225,2.7,5.4,61,0.00,,,0.00,VWS V14.01,2013-07-08 20:27:00,
2013-07-08 15:32:00,86.2,70.2,30.00,SE,135,3.8,4.7,59,0.00,,,0.00,VWS V14.01,2013-07-08 20:32:00,
2013-07-08 15:37:00,86.5,72.0,30.00,NW,315,1.3,4.3,62,0.00,,,0.00,VWS V14.01,2013-07-08 20:37:00,
2013-07-08 15:42:00,86.4,70.8,30.00,NW,315,2.9,3.8,60,0.00,,,0.00,VWS V14.01,2013-07-08 20:42:00,
2013-07-08 15:48:00,86.5,70.5,30.00,ENE,68,4.5,6.0,59,0.00,,,0.00,VWS V14.01,2013-07-08 20:48:00,
2013-07-08 15:53:00,86.9,70.4,30.00,ENE,68,2.0,4.5,58,0.00,,,0.00,VWS V14.01,2013-07-08 20:53:00,
2013-07-08 16:00:00,87.1,69.0,30.00,ENE,68,4.9,4.9,55,0.00,,,0.00,VWS V14.01,2013-07-08 21:00:00,
2013-07-08 16:05:00,87.1,69.0,30.00,ENE,68,0.9,4.3,55,0.00,,,0.00,VWS V14.01,2013-07-08 21:05:00,
2013-07-08 16:10:00,87.1,69.0,30.00,NE,45,2.9,4.3,55,0.00,,,0.00,VWS V14.01,2013-07-08 21:10:00,
2013-07-08 16:15:00,87.4,68.8,30.00,West,270,3.8,4.7,54,0.00,,,0.00,VWS V14.01,2013-07-08 21:15:00,
2013-07-08 16:21:00,87.1,69.5,30.00,WSW,248,3.6,3.6,56,0.00,,,0.00,VWS V14.01,2013-07-08 21:21:00,
2013-07-08 16:26:00,87.3,69.7,30.00,East,90,3.6,4.0,56,0.00,,,0.00,VWS V14.01,2013-07-08 21:26:00,
2013-07-08 16:31:00,87.1,70.0,30.00,NE,45,0.9,6.5,57,0.00,,,0.00,VWS V14.01,2013-07-08 21:31:00,
2013-07-08 16:37:00,87.1,69.5,30.00,NNW,338,2.5,6.0,56,0.00,,,0.00,VWS V14.01,2013-07-08 21:37:00,
2013-07-08 16:42:00,87.3,70.7,30.00,WNW,292,2.0,4.3,58,0.00,,,0.00,VWS V14.01,2013-07-08 21:42:00,
2013-07-08 16:48:00,88.0,71.4,30.00,West,270,2.5,2.5,58,0.00,,,0.00,VWS V14.01,2013-07-08 21:48:00,
2013-07-08 16:53:00,87.6,69.5,30.00,SSW,202,2.5,4.9,55,0.00,,,0.00,VWS V14.01,2013-07-08 21:53:00,
2013-07-08 16:58:00,87.8,69.6,30.00,NW,315,3.1,4.0,55,0.00,,,0.00,VWS V14.01,2013-07-08 21:58:00,
2013-07-08 17:03:00,88.0,70.8,30.00,NW,315,1.3,3.1,57,0.00,,,0.00,VWS V14.01,2013-07-08 22:03:00,
2013-07-08 17:08:00,88.0,70.3,30.00,West,270,1.3,1.3,56,0.00,,,0.00,VWS V14.01,2013-07-08 22:08:00,
2013-07-08 17:16:00,87.8,69.6,30.00,West,270,1.1,2.9,55,0.00,,,0.00,VWS V14.01,2013-07-08 22:16:00,
2013-07-08 17:22:00,86.9,69.8,30.00,West,270,0.9,3.1,57,0.00,,,0.00,VWS V14.01,2013-07-08 22:22:00,
2013-07-08 17:28:00,86.4,69.8,30.00,SSW,202,2.2,2.9,58,0.00,,,0.00,VWS V14.01,2013-07-08 22:28:00,
2013-07-08 17:33:00,86.5,71.0,30.00,NW,315,1.6,2.5,60,0.00,,,0.00,VWS V14.01,2013-07-08 22:33:00,
2013-07-08 17:38:00,87.3,72.2,30.00,NW,315,1.1,1.1,61,0.00,,,0.00,VWS V14.01,2013-07-08 22:38:00,
2013-07-08 17:44:00,88.0,72.4,30.00,NNW,338,2.7,3.1,60,0.00,,,0.00,VWS V14.01,2013-07-08 22:44:00,
2013-07-08 17:49:00,88.3,71.7,30.00,NNW,338,2.5,2.7,58,0.00,,,0.00,VWS V14.01,2013-07-08 22:49:00,
2013-07-08 17:54:00,88.7,72.0,30.00,ENE,68,2.7,2.7,58,0.00,,,0.00,VWS V14.01,2013-07-08 22:54:00,
2013-07-08 18:00:00,88.5,70.8,30.00,NNW,338,2.2,4.0,56,0.00,,,0.00,VWS V14.01,2013-07-08 23:00:00,
2013-07-08 18:07:00,88.3,70.7,29.97,NNW,338,0.0,2.5,56,0.00,,,0.00,VWS V14.01,2013-07-08 23:07:00,
2013-07-08 18:12:00,88.5,70.8,29.97,NNW,338,0.0,3.1,56,0.00,,,0.00,VWS V14.01,2013-07-08 23:12:00,
2013-07-08 18:18:00,88.5,70.8,29.97,WNW,292,0.0,2.2,56,0.00,,,0.00,VWS V14.01,2013-07-08 23:18:00,
2013-07-08 18:23:00,88.2,71.0,30.00,WNW,292,1.3,2.9,57,0.00,,,0.00,VWS V14.01,2013-07-08 23:23:00,
2013-07-08 18:29:00,88.2,71.0,30.00,WNW,292,0.0,0.0,57,0.00,,,0.00,VWS V14.01,2013-07-08 23:29:00,
2013-07-08 18:34:00,88.2,71.5,30.00,WNW,292,0.0,2.2,58,0.00,,,0.00,VWS V14.01,2013-07-08 23:34:00,
2013-07-08 18:40:00,88.2,71.5,30.00,WNW,292,0.0,0.0,58,0.00,,,0.00,VWS V14.01,2013-07-08 23:40:00,
2013-07-08 18:45:00,88.0,70.8,30.00,NNW,338,1.6,2.2,57,0.00,,,0.00,VWS V14.01,2013-07-08 23:45:00,
2013-07-08 18:50:00,87.8,71.2,30.00,NNW,338,1.1,2.2,58,0.00,,,0.00,VWS V14.01,2013-07-08 23:50:00,
2013-07-08 18:56:00,87.3,71.2,30.00,NNW,338,0.9,1.6,59,0.00,,,0.00,VWS V14.01,2013-07-08 23:56:00,
2013-07-08 19:01:00,86.5,71.5,30.00,NNW,338,0.0,1.3,61,0.00,,,0.00,VWS V14.01,2013-07-09 00:01:00,
2013-07-08 19:07:00,85.8,71.8,30.00,ESE,112,0.0,1.6,63,0.00,,,0.00,VWS V14.01,2013-07-09 00:07:00,
2013-07-08 19:13:00,84.9,71.8,30.00,SW,225,0.0,0.0,65,0.00,,,0.00,VWS V14.01,2013-07-09 00:13:00,
2013-07-08 19:18:00,83.7,71.1,29.97,SW,225,0.0,0.0,66,0.00,,,0.00,VWS V14.01,2013-07-09 00:18:00,
2013-07-08 19:23:00,82.8,71.1,29.97,SW,225,0.0,0.0,68,0.00,,,0.00,VWS V14.01,2013-07-09 00:23:00,
2013-07-08 19:28:00,82.2,71.0,29.97,SW,225,0.0,0.0,69,0.00,,,0.00,VWS V14.01,2013-07-09 00:28:00,
2013-07-08 19:33:00,81.7,70.9,29.97,SW,225,0.0,0.0,70,0.00,,,0.00,VWS V14.01,2013-07-09 00:33:00,
2013-07-08 19:39:00,81.1,71.3,29.97,SW,225,0.0,0.0,72,0.00,,,0.00,VWS V14.01,2013-07-09 00:39:00,
2013-07-08 19:44:00,80.8,71.3,29.97,SW,225,0.0,0.0,73,0.00,,,0.00,VWS V14.01,2013-07-09 00:44:00,
2013-07-08 19:50:00,80.2,71.6,30.00,SW,225,0.0,0.0,75,0.00,,,0.00,VWS V14.01,2013-07-09 00:50:00,
2013-07-08 19:56:00,79.9,71.6,30.00,SW,225,0.0,0.0,76,0.00,,,0.00,VWS V14.01,2013-07-09 00:56:00,
2013-07-08 20:01:00,79.5,72.1,30.00,SW,225,0.0,0.0,78,0.00,,,0.00,VWS V14.01,2013-07-09 01:01:00,
2013-07-08 20:06:00,79.0,71.9,30.00,SW,225,0.0,0.0,79,0.00,,,0.00,VWS V14.01,2013-07-09 01:06:00,
2013-07-08 20:11:00,78.6,72.3,30.00,SW,225,0.0,0.0,81,0.00,,,0.00,VWS V14.01,2013-07-09 01:11:00,
2013-07-08 20:16:00,78.3,72.3,30.00,WNW,292,0.0,0.0,82,0.00,,,0.00,VWS V14.01,2013-07-09 01:16:00,
2013-07-08 20:22:00,77.7,71.8,30.00,WNW,292,0.0,0.0,82,0.00,,,0.00,VWS V14.01,2013-07-09 01:22:00,
2013-07-08 20:27:00,77.4,72.2,30.00,WNW,292,0.0,0.0,84,0.00,,,0.00,VWS V14.01,2013-07-09 01:27:00,
2013-07-08 20:32:00,77.0,71.8,30.00,SE,135,0.0,0.0,84,0.00,,,0.00,VWS V14.01,2013-07-09 01:32:00,
2013-07-08 20:37:00,76.5,72.0,30.00,SE,135,0.0,0.0,86,0.00,,,0.00,VWS V14.01,2013-07-09 01:37:00,
2013-07-08 20:42:00,76.1,71.6,30.00,SE,135,0.0,0.0,86,0.00,,,0.00,VWS V14.01,2013-07-09 01:42:00,
2013-07-08 20:48:00,75.7,71.6,30.00,SE,135,0.0,0.0,87,0.00,,,0.00,VWS V14.01,2013-07-09 01:48:00,
2013-07-08 20:53:00,75.2,71.4,30.00,SE,135,0.0,0.0,88,0.00,,,0.00,VWS V14.01,2013-07-09 01:53:00,
2013-07-08 20:59:00,74.7,71.2,30.00,SE,135,0.0,0.0,89,0.00,,,0.00,VWS V14.01,2013-07-09 01:59:00,
2013-07-08 21:04:00,74.3,70.8,30.00,SE,135,0.0,0.0,89,0.00,,,0.00,VWS V14.01,2013-07-09 02:04:00,
2013-07-08 21:09:00,73.9,70.8,30.00,SSE,158,0.0,0.0,90,0.00,,,0.00,VWS V14.01,2013-07-09 02:09:00,
2013-07-08 21:14:00,73.8,70.7,30.00,WSW,248,0.0,0.0,90,0.00,,,0.00,VWS V14.01,2013-07-09 02:14:00,
2013-07-08 21:21:00,73.2,70.4,30.00,NE,45,0.0,0.0,91,0.00,,,0.00,VWS V14.01,2013-07-09 02:21:00,
2013-07-08 21:26:00,73.0,70.3,30.00,NE,45,0.0,0.0,91,0.00,,,0.00,VWS V14.01,2013-07-09 02:26:00,
2013-07-08 21:31:00,72.7,70.2,30.00,NE,45,0.0,0.0,92,0.00,,,0.00,VWS V14.01,2013-07-09 02:31:00,
2013-07-08 21:37:00,72.3,69.9,30.00,NE,45,0.0,0.0,92,0.00,,,0.00,VWS V14.01,2013-07-09 02:37:00,
2013-07-08 21:42:00,72.1,70.0,30.00,NE,45,0.0,0.0,93,0.00,,,0.00,VWS V14.01,2013-07-09 02:42:00,
2013-07-08 21:48:00,71.8,69.7,30.00,NE,45,0.0,0.0,93,0.00,,,0.00,VWS V14.01,2013-07-09 02:48:00,
2013-07-08 21:54:00,71.6,69.5,30.00,NE,45,0.0,0.0,93,0.00,,,0.00,VWS V14.01,2013-07-09 02:54:00,
2013-07-08 21:59:00,71.4,69.6,30.00,NE,45,0.0,0.0,94,0.00,,,0.00,VWS V14.01,2013-07-09 02:59:00,
2013-07-08 22:04:00,71.2,69.4,30.00,NE,45,0.0,0.0,94,0.00,,,0.00,VWS V14.01,2013-07-09 03:04:00,
2013-07-08 22:10:00,71.1,69.2,30.00,NNE,22,0.0,0.0,94,0.00,,,0.00,VWS V14.01,2013-07-09 03:10:00,
2013-07-08 22:15:00,70.9,69.1,30.00,NNE,22,0.0,0.0,94,0.00,,,0.00,VWS V14.01,2013-07-09 03:15:00,
2013-07-08 22:20:00,70.7,69.2,30.00,NNE,22,0.0,0.0,95,0.00,,,0.00,VWS V14.01,2013-07-09 03:20:00,
2013-07-08 22:26:00,70.5,69.0,30.00,NNE,22,0.0,0.0,95,0.00,,,0.00,VWS V14.01,2013-07-09 03:26:00,
2013-07-08 22:32:00,70.3,68.8,30.00,NNE,22,0.0,0.0,95,0.00,,,0.00,VWS V14.01,2013-07-09 03:32:00,
2013-07-08 22:37:00,70.2,68.7,29.97,NNE,22,0.0,0.0,95,0.00,,,0.00,VWS V14.01,2013-07-09 03:37:00,
2013-07-08 22:42:00,70.0,68.8,29.97,NNE,22,0.0,0.0,96,0.00,,,0.00,VWS V14.01,2013-07-09 03:42:00,
2013-07-08 22:47:00,69.8,68.3,29.97,NNE,22,0.0,0.0,95,0.00,,,0.00,VWS V14.01,2013-07-09 03:47:00,
2013-07-08 22:52:00,69.6,68.4,30.00,NNE,22,0.0,0.0,96,0.00,,,0.00,VWS V14.01,2013-07-09 03:52:00,
2013-07-08 22:57:00,69.4,68.2,30.00,NNE,22,0.0,0.0,96,0.00,,,0.00,VWS V14.01,2013-07-09 03:57:00,
2013-07-08 23:01:00,69.3,68.1,30.00,NNE,22,0.0,0.0,96,0.00,,,0.00,VWS V14.01,2013-07-09 04:01:00,
2013-07-08 23:04:00,69.3,68.1,29.97,NNE,22,0.0,0.0,96,0.00,,,0.00,VWS V14.01,2013-07-09 04:04:00,
2013-07-08 23:09:00,69.1,67.9,29.97,NNE,22,0.0,0.0,96,0.00,,,0.00,VWS V14.01,2013-07-09 04:09:00,
2013-07-08 23:14:00,68.9,67.7,29.97,NNE,22,0.0,0.0,96,0.00,,,0.00,VWS V14.01,2013-07-09 04:14:00,
2013-07-08 23:19:00,68.9,67.7,30.00,NNE,22,0.0,0.0,96,0.00,,,0.00,VWS V14.01,2013-07-09 04:19:00,
2013-07-08 23:24:00,68.7,67.5,30.00,NNE,22,0.0,0.0,96,0.00,,,0.00,VWS V14.01,2013-07-09 04:24:00,
2013-07-08 23:29:00,68.7,67.8,30.00,NNE,22,0.0,0.0,97,0.00,,,0.00,VWS V14.01,2013-07-09 04:29:00,
2013-07-08 23:34:00,68.5,67.7,30.00,NNE,22,0.0,0.0,97,0.00,,,0.00,VWS V14.01,2013-07-09 04:34:00,
2013-07-08 23:39:00,68.5,67.7,30.00,NNE,22,0.0,0.0,97,0.00,,,0.00,VWS V14.01,2013-07-09 04:39:00,
2013-07-08 23:44:00,68.4,67.5,30.00,NNE,22,0.0,0.0,97,0.00,,,0.00,VWS V14.01,2013-07-09 04:44:00,
2013-07-08 23:49:00,68.2,67.3,30.00,NNE,22,0.0,0.0,97,0.00,,,0.00,VWS V14.01,2013-07-09 04:49:00,
2013-07-08 23:54:00,68.2,67.3,30.00,NNE,22,0.0,0.0,97,0.00,,,0.00,VWS V14.01,2013-07-09 04:54:00,